createdAt,value
2022-11-25T00:00:09.558Z,33.89
2022-11-25T00:02:37.513Z,33.73
2022-11-25T00:05:07.671Z,33.83
2022-11-25T00:07:36.788Z,33.77
2022-11-25T00:10:05.219Z,34.06
2022-11-25T00:12:33.131Z,33.93
2022-11-25T00:15:01.047Z,33.91
2022-11-25T00:17:29.221Z,33.79
2022-11-25T00:19:57.096Z,33.95
2022-11-25T00:22:26.388Z,33.90
2022-11-25T00:24:54.251Z,33.94
2022-11-25T00:27:22.360Z,33.72
2022-11-25T00:29:50.239Z,34.02
2022-11-25T00:32:18.157Z,33.80
2022-11-25T00:34:46.070Z,33.76
2022-11-25T00:37:14.251Z,33.79
2022-11-25T00:39:43.503Z,33.97
2022-11-25T00:42:28.853Z,34.05
2022-11-25T00:44:56.713Z,33.99
2022-11-25T00:47:24.848Z,33.98
2022-11-25T00:49:54.785Z,34.10
2022-11-25T00:52:23.497Z,34.01
2022-11-25T00:54:52.944Z,33.83
2022-11-25T00:57:22.283Z,33.91
2022-11-25T00:59:50.179Z,33.78
2022-11-25T01:02:18.409Z,33.52
2022-11-25T01:04:46.907Z,33.90
2022-11-25T01:07:15.220Z,33.78
2022-11-25T01:09:43.133Z,33.98
2022-11-25T01:12:12.365Z,33.77
2022-11-25T01:14:40.301Z,34.00
2022-11-25T01:17:08.457Z,33.87
2022-11-25T01:19:40.000Z,33.75
2022-11-25T01:22:09.031Z,33.63
2022-11-25T01:24:37.044Z,33.89
2022-11-25T01:27:05.403Z,33.83
2022-11-25T01:29:34.657Z,33.83
2022-11-25T01:32:02.567Z,33.67
2022-11-25T01:34:32.497Z,33.81
2022-11-25T01:37:00.613Z,33.90
2022-11-25T01:39:32.625Z,33.62
2022-11-25T01:42:01.226Z,33.75
2022-11-25T01:44:29.399Z,33.72
2022-11-25T01:47:01.898Z,33.78
2022-11-25T01:49:36.391Z,33.83
2022-11-25T01:52:07.810Z,33.70
2022-11-25T01:54:38.348Z,34.03
2022-11-25T01:57:08.967Z,33.92
2022-11-25T01:59:38.589Z,33.82
2022-11-25T02:02:08.054Z,34.00
2022-11-25T02:04:36.297Z,34.14
2022-11-25T02:07:06.540Z,34.04
2022-11-25T02:09:34.477Z,33.77
2022-11-25T02:12:02.407Z,33.91
2022-11-25T02:14:30.301Z,33.80
2022-11-25T02:16:59.419Z,33.96
2022-11-25T02:19:32.154Z,33.88
2022-11-25T02:22:01.297Z,33.84
2022-11-25T02:24:32.284Z,33.94
2022-11-25T02:27:01.861Z,33.88
2022-11-25T02:29:29.922Z,34.02
2022-11-25T02:31:57.851Z,33.95
2022-11-25T02:34:25.786Z,33.89
2022-11-25T02:36:53.627Z,33.83
2022-11-25T02:39:21.559Z,33.86
2022-11-25T02:41:51.038Z,33.79
2022-11-25T02:44:20.440Z,33.83
2022-11-25T02:46:48.401Z,33.83
2022-11-25T02:49:16.245Z,33.89
2022-11-25T02:51:45.555Z,33.93
2022-11-25T02:54:13.761Z,33.80
2022-11-25T02:56:41.657Z,33.71
2022-11-25T02:59:09.945Z,33.86
2022-11-25T03:01:39.376Z,33.75
2022-11-25T03:04:07.378Z,33.80
2022-11-25T03:06:35.297Z,33.72
2022-11-25T03:09:03.579Z,34.01
2022-11-25T03:11:48.621Z,33.79
2022-11-25T03:14:16.690Z,33.66
2022-11-25T03:16:46.141Z,34.03
2022-11-25T03:19:14.388Z,33.81
2022-11-25T03:21:42.407Z,33.94
2022-11-25T03:24:10.340Z,33.89
2022-11-25T03:26:38.215Z,34.09
2022-11-25T03:29:06.429Z,33.71
2022-11-25T03:31:34.432Z,33.89
2022-11-25T03:34:03.811Z,33.70
2022-11-25T03:36:31.748Z,33.90
2022-11-25T03:38:59.819Z,33.97
2022-11-25T03:41:27.693Z,33.92
2022-11-25T03:43:55.593Z,33.91
2022-11-25T03:46:23.549Z,33.90
2022-11-25T03:48:51.765Z,33.77
2022-11-25T03:51:21.055Z,33.62
2022-11-25T03:53:48.962Z,33.70
2022-11-25T03:56:16.854Z,33.91
2022-11-25T03:58:44.979Z,33.75
2022-11-25T04:01:12.967Z,33.84
2022-11-25T04:03:40.924Z,33.74
2022-11-25T04:06:09.072Z,34.07
2022-11-25T04:08:38.612Z,34.01
2022-11-25T04:11:06.724Z,33.93
2022-11-25T04:13:34.489Z,34.10
2022-11-25T04:16:02.337Z,33.92
2022-11-25T04:18:30.730Z,34.03
2022-11-25T04:20:58.640Z,34.01
2022-11-25T04:23:26.482Z,33.93
2022-11-25T04:25:55.741Z,33.88
2022-11-25T04:28:23.973Z,33.94
2022-11-25T04:30:51.956Z,33.96
2022-11-25T04:33:19.921Z,33.81
2022-11-25T04:35:48.612Z,33.94
2022-11-25T04:38:16.769Z,33.99
2022-11-25T04:40:44.644Z,34.06
2022-11-25T04:43:13.991Z,33.93
2022-11-25T04:48:29.947Z,33.83
2022-11-25T04:50:57.830Z,34.04
2022-11-25T04:53:25.712Z,33.89
2022-11-25T04:55:53.690Z,33.99
2022-11-25T04:58:37.068Z,34.00
2022-11-25T05:01:04.995Z,34.04
2022-11-25T05:03:32.898Z,33.97
2022-11-25T05:06:00.768Z,34.15
2022-11-25T05:08:28.956Z,34.09
2022-11-25T05:10:56.897Z,34.03
2022-11-25T05:13:26.133Z,34.10
2022-11-25T05:15:54.040Z,33.90
2022-11-25T05:18:22.172Z,34.18
2022-11-25T05:20:50.024Z,34.09
2022-11-25T05:23:17.916Z,33.98
2022-11-25T05:25:45.782Z,33.74
2022-11-25T05:28:13.914Z,33.99
2022-11-25T05:30:45.367Z,34.11
2022-11-25T05:33:13.436Z,34.32
2022-11-25T05:35:41.317Z,34.09
2022-11-25T05:38:09.483Z,34.05
2022-11-25T05:40:37.376Z,34.09
2022-11-25T05:43:05.275Z,34.37
2022-11-25T05:45:33.129Z,33.93
2022-11-25T05:48:02.642Z,33.99
2022-11-25T05:50:30.782Z,34.04
2022-11-25T05:52:58.642Z,33.90
2022-11-25T05:55:26.495Z,34.17
2022-11-25T05:57:54.675Z,33.93
2022-11-25T06:00:26.791Z,34.05
2022-11-25T06:02:57.243Z,34.05
2022-11-25T06:05:29.324Z,33.99
2022-11-25T06:07:57.535Z,34.05
2022-11-25T06:10:25.687Z,33.78
2022-11-25T06:12:53.858Z,33.96
2022-11-25T06:15:21.702Z,33.90
2022-11-25T06:17:49.559Z,34.13
2022-11-25T06:20:17.848Z,34.13
2022-11-25T06:22:47.208Z,34.07
2022-11-25T06:25:15.148Z,33.86
2022-11-25T06:28:11.147Z,33.94
2022-11-25T06:30:32.477Z,34.29
2022-11-25T06:33:00.442Z,34.23
2022-11-25T06:35:28.426Z,33.95
2022-11-25T06:37:59.866Z,34.14
2022-11-25T06:40:27.794Z,34.11
2022-11-25T06:42:55.665Z,33.98
2022-11-25T06:45:23.596Z,34.16
2022-11-25T06:47:51.551Z,34.14
2022-11-25T06:50:19.692Z,34.16
2022-11-25T06:52:47.602Z,34.11
2022-11-25T06:55:17.412Z,34.29
2022-11-25T06:57:45.298Z,34.14
2022-11-25T07:00:13.916Z,34.25
2022-11-25T07:02:46.680Z,34.11
2022-11-25T07:05:16.784Z,34.16
2022-11-25T07:07:44.818Z,34.32
2022-11-25T07:10:12.925Z,34.25
2022-11-25T07:12:42.192Z,34.07
2022-11-25T07:15:10.923Z,34.22
2022-11-25T07:17:39.117Z,34.19
2022-11-25T07:20:08.593Z,34.05
2022-11-25T07:22:36.557Z,34.20
2022-11-25T07:25:04.475Z,34.04
2022-11-25T07:27:32.333Z,34.14
2022-11-25T07:30:54.496Z,34.22
2022-11-25T07:32:49.546Z,34.23
2022-11-25T07:35:17.915Z,34.21
2022-11-25T07:37:46.106Z,34.10
2022-11-25T07:40:14.440Z,34.32
2022-11-25T07:42:42.384Z,34.32
2022-11-25T07:45:12.137Z,33.99
2022-11-25T07:47:40.271Z,34.25
2022-11-25T07:50:09.732Z,34.11
2022-11-25T07:52:39.488Z,34.13
2022-11-25T07:55:07.845Z,34.10
2022-11-25T07:57:36.005Z,34.14
2022-11-25T08:00:04.841Z,34.27
2022-11-25T08:02:34.161Z,34.30
2022-11-25T08:05:02.130Z,34.21
2022-11-25T08:07:36.355Z,34.15
2022-11-25T08:10:05.024Z,34.37
2022-11-25T08:12:33.054Z,34.22
2022-11-25T08:15:00.927Z,34.19
2022-11-25T08:17:29.151Z,34.32
2022-11-25T08:19:58.861Z,34.29
2022-11-25T08:22:26.695Z,34.28
2022-11-25T08:24:54.589Z,34.13
2022-11-25T08:27:22.699Z,34.34
2022-11-25T08:29:50.615Z,34.22
2022-11-25T08:32:18.565Z,34.31
2022-11-25T08:34:46.470Z,34.28
2022-11-25T08:37:15.998Z,34.13
2022-11-25T08:39:52.221Z,34.33
2022-11-25T08:42:20.998Z,34.17
2022-11-25T08:44:53.000Z,34.14
2022-11-25T08:47:21.155Z,34.16
2022-11-25T08:49:51.914Z,34.48
2022-11-25T08:52:21.333Z,34.21
2022-11-25T08:54:49.230Z,33.99
2022-11-25T08:57:17.514Z,34.32
2022-11-25T08:59:45.445Z,34.02
2022-11-25T09:02:14.364Z,34.19
2022-11-25T09:04:42.769Z,34.03
2022-11-25T09:07:10.718Z,34.26
2022-11-25T09:09:40.282Z,34.21
2022-11-25T09:12:08.443Z,34.36
2022-11-25T09:14:36.458Z,34.25
2022-11-25T09:17:07.229Z,34.61
2022-11-25T09:19:35.786Z,34.34
2022-11-25T09:22:04.010Z,34.34
2022-11-25T09:24:31.917Z,34.23
2022-11-25T09:27:01.172Z,34.31
2022-11-25T09:29:30.194Z,34.26
2022-11-25T09:31:58.239Z,34.21
2022-11-25T09:34:26.178Z,34.54
2022-11-25T09:36:54.090Z,34.27
2022-11-25T09:39:22.011Z,34.38
2022-11-25T09:42:15.253Z,34.26
2022-11-25T09:45:09.852Z,34.31
2022-11-25T09:47:47.089Z,34.16
2022-11-25T09:50:20.182Z,34.25
2022-11-25T09:52:51.914Z,34.15
2022-11-25T09:55:21.961Z,34.42
2022-11-25T09:57:59.860Z,34.19
2022-11-25T10:00:31.685Z,34.39
2022-11-25T10:03:02.472Z,34.15
2022-11-25T10:05:32.703Z,34.36
2022-11-25T10:08:02.671Z,34.09
2022-11-25T10:10:32.281Z,34.22
2022-11-25T10:13:00.414Z,34.35
2022-11-25T10:15:31.726Z,34.22
2022-11-25T10:18:01.341Z,34.41
2022-11-25T10:20:30.907Z,34.27
2022-11-25T10:23:01.861Z,34.25
2022-11-25T10:25:31.863Z,34.49
2022-11-25T10:28:02.051Z,34.28
2022-11-25T10:30:35.284Z,34.50
2022-11-25T10:33:06.812Z,34.25
2022-11-25T10:35:35.620Z,34.35
2022-11-25T10:38:05.325Z,34.22
2022-11-25T10:40:33.264Z,34.30
2022-11-25T10:43:03.003Z,34.28
2022-11-25T10:45:34.252Z,34.30
2022-11-25T10:48:15.290Z,34.31
2022-11-25T10:50:52.697Z,34.66
2022-11-25T10:53:21.949Z,34.27
2022-11-25T10:56:01.313Z,34.37
2022-11-25T10:58:31.464Z,34.36
2022-11-25T11:01:15.074Z,34.38
2022-11-25T11:03:43.975Z,34.34
2022-11-25T11:06:30.545Z,34.26
2022-11-25T11:08:58.394Z,34.42
2022-11-25T11:11:26.437Z,34.50
2022-11-25T11:13:59.979Z,34.34
2022-11-25T11:16:35.205Z,34.50
2022-11-25T11:19:03.283Z,34.42
2022-11-25T11:21:32.397Z,34.43
2022-11-25T11:24:00.881Z,34.53
2022-11-25T11:26:29.940Z,34.17
2022-11-25T11:29:03.191Z,34.49
2022-11-25T11:31:35.699Z,34.35
2022-11-25T11:34:25.685Z,34.41
2022-11-25T11:37:02.304Z,34.34
2022-11-25T11:39:40.651Z,34.51
2022-11-25T11:42:11.516Z,34.39
2022-11-25T11:44:43.001Z,34.40
2022-11-25T11:47:17.727Z,34.44
2022-11-25T11:50:02.909Z,34.52
2022-11-25T11:52:34.767Z,34.72
2022-11-25T11:55:03.657Z,34.45
2022-11-25T11:57:41.562Z,34.55
2022-11-25T12:00:14.527Z,34.43
2022-11-25T12:02:54.077Z,34.61
2022-11-25T12:05:23.194Z,34.39
2022-11-25T12:07:59.675Z,34.67
2022-11-25T12:10:28.800Z,34.25
2022-11-25T12:13:00.345Z,34.54
2022-11-25T12:15:36.628Z,34.27
2022-11-25T12:18:10.664Z,34.73
2022-11-25T12:20:41.745Z,34.40
2022-11-25T12:23:12.581Z,34.53
2022-11-25T12:25:41.781Z,34.53
2022-11-25T12:28:12.152Z,34.56
2022-11-25T12:30:42.362Z,34.73
2022-11-25T12:33:14.275Z,34.59
2022-11-25T12:35:47.296Z,34.60
2022-11-25T12:38:25.048Z,34.55
2022-11-25T12:40:56.790Z,34.57
2022-11-25T12:43:28.875Z,34.85
2022-11-25T12:46:05.015Z,34.48
2022-11-25T12:48:34.295Z,34.71
2022-11-25T12:51:04.119Z,34.55
2022-11-25T12:53:35.077Z,34.34
2022-11-25T12:56:03.054Z,34.45
2022-11-25T12:58:51.332Z,34.57
2022-11-25T13:01:47.251Z,34.68
2022-11-25T13:04:38.636Z,34.51
2022-11-25T13:07:31.036Z,34.55
2022-11-25T13:10:23.317Z,34.73
2022-11-25T13:12:57.516Z,34.40
2022-11-25T13:15:29.592Z,34.50
2022-11-25T13:17:59.371Z,34.51
2022-11-25T13:20:46.864Z,34.65
2022-11-25T13:23:28.791Z,34.52
2022-11-25T13:26:29.835Z,34.66
2022-11-25T13:28:57.832Z,34.44
2022-11-25T13:31:26.241Z,34.54
2022-11-25T13:34:03.900Z,34.51
2022-11-25T13:36:47.147Z,34.56
2022-11-25T13:39:16.007Z,34.69
2022-11-25T13:41:47.214Z,34.57
2022-11-25T13:44:28.140Z,34.83
2022-11-25T13:46:56.688Z,34.58
2022-11-25T13:49:32.660Z,34.83
2022-11-25T13:52:03.413Z,34.86
2022-11-25T13:54:37.323Z,34.55
2022-11-25T13:57:27.886Z,34.50
2022-11-25T13:59:57.891Z,34.50
2022-11-25T14:02:45.359Z,34.86
2022-11-25T14:05:49.358Z,35.11
2022-11-25T14:08:29.027Z,34.66
2022-11-25T14:11:04.395Z,34.49
2022-11-25T14:13:56.641Z,34.47
2022-11-25T14:16:34.901Z,34.71
2022-11-25T14:22:32.123Z,34.64
2022-11-25T14:25:11.228Z,34.66
2022-11-25T14:27:41.600Z,34.75
2022-11-25T14:30:13.323Z,34.71
2022-11-25T14:32:42.744Z,34.69
2022-11-25T14:35:14.560Z,34.65
2022-11-25T14:37:44.917Z,34.90
2022-11-25T14:40:17.041Z,34.73
2022-11-25T14:42:46.345Z,34.56
2022-11-25T14:45:24.863Z,34.74
2022-11-25T14:47:53.139Z,34.58
2022-11-25T14:50:37.124Z,34.62
2022-11-25T14:53:07.736Z,34.29
2022-11-25T14:55:37.094Z,34.65
2022-11-25T14:58:05.273Z,34.72
2022-11-25T15:00:33.812Z,34.60
2022-11-25T15:03:02.755Z,34.72
2022-11-25T15:05:33.247Z,34.58
2022-11-25T15:08:02.492Z,34.54
2022-11-25T15:10:40.733Z,34.60
2022-11-25T15:13:15.310Z,34.84
2022-11-25T15:15:46.504Z,34.73
2022-11-25T15:18:18.480Z,34.68
2022-11-25T15:20:47.899Z,34.59
2022-11-25T15:23:17.754Z,34.57
2022-11-25T15:25:52.394Z,34.80
2022-11-25T15:28:20.361Z,34.74
2022-11-25T15:30:57.248Z,34.64
2022-11-25T15:33:25.284Z,34.71
2022-11-25T15:35:53.156Z,34.71
2022-11-25T15:38:21.440Z,34.65
2022-11-25T15:41:01.649Z,34.52
2022-11-25T15:43:30.646Z,34.49
2022-11-25T15:46:02.619Z,34.71
2022-11-25T15:48:32.029Z,34.70
2022-11-25T15:51:02.768Z,34.77
2022-11-25T15:53:33.609Z,34.65
2022-11-25T15:56:03.002Z,34.63
2022-11-25T15:58:30.958Z,34.66
2022-11-25T16:01:03.366Z,34.62
2022-11-25T16:03:32.433Z,34.40
2022-11-25T16:06:00.566Z,34.68
2022-11-25T16:08:57.257Z,34.54
2022-11-25T16:15:18.683Z,34.52
2022-11-25T16:17:46.549Z,34.70
2022-11-25T16:20:18.369Z,34.66
2022-11-25T16:22:46.653Z,34.56
2022-11-25T16:25:16.217Z,34.44
2022-11-25T16:27:44.190Z,35.02
2022-11-25T16:30:19.999Z,34.71
2022-11-25T16:32:47.978Z,34.42
2022-11-25T16:35:18.271Z,34.83
2022-11-25T16:37:49.190Z,34.65
2022-11-25T16:40:17.859Z,34.73
2022-11-25T16:42:47.008Z,34.70
2022-11-25T16:45:19.425Z,34.61
2022-11-25T16:47:47.361Z,34.67
2022-11-25T16:50:16.157Z,34.54
2022-11-25T16:52:44.185Z,34.62
2022-11-25T16:55:12.380Z,34.88
2022-11-25T16:57:40.310Z,34.83
2022-11-25T17:00:12.785Z,34.65
2022-11-25T17:02:42.143Z,34.61
2022-11-25T17:05:16.954Z,34.65
2022-11-25T17:07:45.129Z,34.71
2022-11-25T17:10:13.763Z,34.72
2022-11-25T17:12:42.489Z,34.89
2022-11-25T17:15:16.103Z,34.66
2022-11-25T17:17:46.755Z,34.60
2022-11-25T17:20:17.092Z,34.55
2022-11-25T17:22:45.129Z,34.60
2022-11-25T17:25:13.508Z,34.59
2022-11-25T17:27:41.888Z,34.61
2022-11-25T17:30:17.145Z,34.70
2022-11-25T17:32:46.625Z,34.83
2022-11-25T17:35:19.368Z,34.61
2022-11-25T17:37:47.555Z,34.59
2022-11-25T17:40:16.009Z,34.67
2022-11-25T17:42:44.062Z,34.68
2022-11-25T17:45:13.315Z,34.62
2022-11-25T17:47:41.266Z,34.60
2022-11-25T17:50:18.930Z,34.75
2022-11-25T17:52:47.143Z,34.73
2022-11-25T17:55:17.204Z,34.54
2022-11-25T17:57:45.139Z,34.46
2022-11-25T18:00:15.267Z,34.68
2022-11-25T18:02:43.206Z,34.83
2022-11-25T18:05:14.030Z,34.56
2022-11-25T18:07:43.733Z,34.72
2022-11-25T18:10:12.500Z,34.68
2022-11-25T18:12:40.446Z,34.33
2022-11-25T18:15:15.569Z,34.78
2022-11-25T18:17:43.529Z,34.60
2022-11-25T18:20:16.417Z,34.64
2022-11-25T18:22:45.787Z,34.54
2022-11-25T18:25:17.312Z,34.68
2022-11-25T18:27:45.357Z,34.81
2022-11-25T18:30:19.759Z,34.77
2022-11-25T18:32:48.227Z,34.75
2022-11-25T18:35:17.548Z,34.77
2022-11-25T18:37:46.930Z,34.57
2022-11-25T18:40:15.868Z,34.70
2022-11-25T18:42:43.784Z,34.74
2022-11-25T18:45:16.491Z,34.42
2022-11-25T18:47:44.357Z,34.68
2022-11-25T18:50:16.237Z,34.77
2022-11-25T18:52:44.115Z,34.55
2022-11-25T18:55:14.398Z,34.64
2022-11-25T18:57:42.609Z,34.39
2022-11-25T19:00:31.824Z,34.83
2022-11-25T19:03:00.943Z,34.80
2022-11-25T19:05:30.636Z,34.40
2022-11-25T19:07:59.120Z,34.56
2022-11-25T19:10:29.364Z,34.54
2022-11-25T19:12:58.142Z,34.51
2022-11-25T19:15:26.538Z,34.62
2022-11-25T19:17:56.682Z,34.48
2022-11-25T19:20:25.604Z,34.62
2022-11-25T19:22:57.862Z,34.63
2022-11-25T19:25:30.474Z,34.66
2022-11-25T19:27:59.595Z,34.73
2022-11-25T19:30:29.268Z,34.65
2022-11-25T19:32:58.114Z,34.77
2022-11-25T19:35:27.617Z,34.65
2022-11-25T19:37:55.537Z,34.57
2022-11-25T19:40:25.135Z,34.58
2022-11-25T19:42:54.534Z,34.57
2022-11-25T19:45:22.440Z,34.61
2022-11-25T19:47:51.163Z,34.77
2022-11-25T19:50:21.521Z,34.60
2022-11-25T19:52:49.929Z,34.74
2022-11-25T19:55:18.985Z,34.69
2022-11-25T19:57:47.142Z,34.87
2022-11-25T20:00:17.827Z,34.75
2022-11-25T20:02:45.875Z,34.77
2022-11-25T20:05:17.275Z,34.78
2022-11-25T20:07:45.305Z,34.58
2022-11-25T20:10:17.507Z,34.78
2022-11-25T20:12:45.424Z,34.78
2022-11-25T20:15:13.800Z,34.71
2022-11-25T20:17:45.436Z,34.62
2022-11-25T20:20:15.863Z,34.68
2022-11-25T20:22:54.657Z,34.75
2022-11-25T20:25:22.750Z,34.72
2022-11-25T20:27:50.649Z,34.57
2022-11-25T20:30:20.044Z,34.72
2022-11-25T20:32:49.427Z,34.83
2022-11-25T20:35:17.740Z,35.05
2022-11-25T20:38:02.021Z,34.74
2022-11-25T20:40:33.506Z,34.68
2022-11-25T20:43:01.553Z,34.80
2022-11-25T20:45:29.775Z,34.93
2022-11-25T20:47:59.290Z,34.79
2022-11-25T20:50:29.386Z,34.92
2022-11-25T20:52:57.377Z,34.77
2022-11-25T20:55:26.102Z,35.16
2022-11-25T20:57:54.110Z,34.78
2022-11-25T21:00:23.518Z,34.92
2022-11-25T21:02:51.490Z,34.95
2022-11-25T21:05:20.960Z,34.74
2022-11-25T21:07:49.603Z,34.89
2022-11-25T21:10:22.538Z,35.08
2022-11-25T21:12:50.463Z,34.97
2022-11-25T21:15:19.423Z,34.87
2022-11-25T21:17:47.416Z,35.04
2022-11-25T21:20:15.680Z,34.95
2022-11-25T21:22:47.533Z,34.93
2022-11-25T21:25:16.825Z,34.99
2022-11-25T21:27:44.899Z,35.00
2022-11-25T21:30:18.457Z,35.02
2022-11-25T21:32:46.626Z,34.80
2022-11-25T21:35:14.993Z,34.93
2022-11-25T21:37:43.138Z,35.03
2022-11-25T21:40:22.807Z,35.08
2022-11-25T21:42:50.700Z,35.07
2022-11-25T21:45:18.945Z,34.85
2022-11-25T21:47:46.803Z,34.85
2022-11-25T21:50:16.222Z,34.87
2022-11-25T21:52:44.088Z,35.15
2022-11-25T21:55:12.983Z,35.12
2022-11-25T21:57:42.326Z,34.92
2022-11-25T22:00:20.375Z,35.08
2022-11-25T22:02:48.641Z,34.95
2022-11-25T22:05:17.152Z,35.04
2022-11-25T22:07:45.186Z,35.04
2022-11-25T22:10:13.382Z,34.90
2022-11-25T22:12:43.235Z,34.80
2022-11-25T22:15:14.998Z,34.94
2022-11-25T22:17:43.159Z,35.03
2022-11-25T22:20:24.842Z,34.91
2022-11-25T22:22:52.780Z,34.88
2022-11-25T22:25:20.961Z,34.69
2022-11-25T22:27:50.260Z,35.14
2022-11-25T22:30:19.313Z,34.93
2022-11-25T22:32:47.702Z,34.69
2022-11-25T22:35:20.186Z,34.85
2022-11-25T22:37:54.734Z,34.97
2022-11-25T22:40:23.189Z,34.74
2022-11-25T22:42:52.623Z,34.80
2022-11-25T22:45:25.967Z,34.84
2022-11-25T22:47:53.990Z,34.93
2022-11-25T22:50:23.186Z,34.79
2022-11-25T22:52:51.166Z,34.58
2022-11-25T22:55:21.002Z,35.00
2022-11-25T22:57:49.165Z,34.54
2022-11-25T23:00:20.828Z,34.76
2022-11-25T23:02:49.127Z,34.87
2022-11-25T23:05:19.475Z,35.13
2022-11-25T23:07:47.392Z,34.91
2022-11-25T23:10:16.811Z,34.86
2022-11-25T23:12:44.704Z,34.92
2022-11-25T23:15:16.081Z,34.84
2022-11-25T23:17:50.709Z,34.76
2022-11-25T23:20:20.237Z,35.11
2022-11-25T23:22:48.138Z,34.75
2022-11-25T23:25:17.357Z,34.92
2022-11-25T23:27:45.226Z,34.77
2022-11-25T23:30:16.299Z,34.77
2022-11-25T23:32:45.875Z,34.58
2022-11-25T23:35:15.784Z,34.75
2022-11-25T23:37:43.751Z,34.70
2022-11-25T23:40:19.533Z,34.66
2022-11-25T23:42:47.483Z,34.67
2022-11-25T23:45:16.363Z,34.80
2022-11-25T23:47:46.213Z,34.71
2022-11-25T23:50:19.716Z,34.79
2022-11-25T23:52:47.633Z,34.55
2022-11-25T23:55:16.588Z,34.79
2022-11-25T23:57:44.472Z,34.42
